NKS213 KLAS-KLAX
Flight info
| Callsign | NKS213 |
|---|---|
| Flight time | 0h 45m |
| Altitude | 22000 |
| Route | RADYR2 BLAQQ SHTNR ANJLL4 |
| Aircraft | A321/M-SDE3FGHIRWY/LB1 |
Departure
| Time | 2026-05-05 00:41 |
|---|---|
| Airport | Harry Reid International Airport (KLAS) |
Arrival
| Time | 2026-05-05 01:27 |
|---|---|
| Airport | Los Angeles International Airport (KLAX) |
| Time | Latitude | Longitude | Altitude | Speed | Heading |
|---|---|---|---|---|---|
| 2026-05-05 00:16 | 36.08343 | -115.15321 | 2120 ft | 0 kts | 157° |
| 2026-05-05 00:30 | 36.08358 | -115.15329 | 2117 ft | 3 kts | 157° |
| 2026-05-05 00:30 | 36.08376 | -115.15338 | 2117 ft | 3 kts | 157° |
| 2026-05-05 00:30 | 36.08395 | -115.15344 | 2117 ft | 3 kts | 189° |
| 2026-05-05 00:30 | 36.08413 | -115.15336 | 2118 ft | 3 kts | 232° |
| 2026-05-05 00:31 | 36.08420 | -115.15322 | 2114 ft | 3 kts | 251° |
| 2026-05-05 00:31 | 36.08422 | -115.15315 | 2114 ft | 0 kts | 250° |
| 2026-05-05 00:34 | 36.08422 | -115.15316 | 2114 ft | 1 kts | 250° |
| 2026-05-05 00:34 | 36.08413 | -115.15342 | 2116 ft | 3 kts | 248° |
| 2026-05-05 00:35 | 36.08401 | -115.15375 | 2119 ft | 5 kts | 246° |
| 2026-05-05 00:35 | 36.08389 | -115.15409 | 2119 ft | 4 kts | 246° |
| 2026-05-05 00:35 | 36.08378 | -115.15439 | 2118 ft | 3 kts | 245° |
| 2026-05-05 00:35 | 36.08364 | -115.15477 | 2119 ft | 5 kts | 244° |
| 2026-05-05 00:36 | 36.08352 | -115.15508 | 2121 ft | 6 kts | 244° |
| 2026-05-05 00:36 | 36.08337 | -115.15564 | 2123 ft | 6 kts | 268° |
| 2026-05-05 00:36 | 36.08377 | -115.15621 | 2123 ft | 13 kts | 333° |
| 2026-05-05 00:36 | 36.08467 | -115.15674 | 2123 ft | 15 kts | 334° |
| 2026-05-05 00:37 | 36.08571 | -115.15734 | 2122 ft | 17 kts | 335° |
| 2026-05-05 00:37 | 36.08677 | -115.15789 | 2124 ft | 16 kts | 351° |
| 2026-05-05 00:37 | 36.08789 | -115.15746 | 2123 ft | 18 kts | 25° |
| 2026-05-05 00:37 | 36.08908 | -115.15677 | 2122 ft | 20 kts | 25° |
| 2026-05-05 00:38 | 36.09042 | -115.15599 | 2120 ft | 22 kts | 26° |
| 2026-05-05 00:38 | 36.09178 | -115.15522 | 2125 ft | 21 kts | 25° |
| 2026-05-05 00:38 | 36.09295 | -115.15455 | 2124 ft | 18 kts | 25° |
| 2026-05-05 00:38 | 36.09412 | -115.15388 | 2127 ft | 19 kts | 25° |
| 2026-05-05 00:39 | 36.09539 | -115.15315 | 2124 ft | 22 kts | 25° |
| 2026-05-05 00:39 | 36.09656 | -115.15249 | 2123 ft | 17 kts | 25° |
| 2026-05-05 00:39 | 36.09762 | -115.15210 | 2121 ft | 11 kts | 350° |
| 2026-05-05 00:39 | 36.09802 | -115.15253 | 2122 ft | 4 kts | 298° |
| 2026-05-05 00:40 | 36.09817 | -115.15308 | 2123 ft | 9 kts | 281° |
| 2026-05-05 00:40 | 36.09794 | -115.15392 | 2128 ft | 11 kts | 220° |
| 2026-05-05 00:40 | 36.09725 | -115.15436 | 2125 ft | 14 kts | 205° |
| 2026-05-05 00:40 | 36.09487 | -115.15572 | 2128 ft | 72 kts | 205° |
| 2026-05-05 00:41 | 36.08825 | -115.15948 | 2129 ft | 134 kts | 205° |
| 2026-05-05 00:41 | 36.07852 | -115.16497 | 2341 ft | 162 kts | 204° |
| 2026-05-05 00:41 | 36.06845 | -115.17064 | 3079 ft | 159 kts | 206° |
| 2026-05-05 00:41 | 36.05804 | -115.17659 | 3528 ft | 175 kts | 207° |
| 2026-05-05 00:42 | 36.04645 | -115.18349 | 3686 ft | 195 kts | 208° |
| 2026-05-05 00:42 | 36.03367 | -115.19127 | 3836 ft | 216 kts | 208° |
| 2026-05-05 00:42 | 36.01938 | -115.19995 | 4167 ft | 239 kts | 208° |
| 2026-05-05 00:42 | 36.00403 | -115.20898 | 4848 ft | 246 kts | 205° |
| 2026-05-05 00:43 | 35.98799 | -115.21696 | 5661 ft | 252 kts | 203° |
| 2026-05-05 00:43 | 35.97137 | -115.22459 | 6448 ft | 256 kts | 201° |
| 2026-05-05 00:43 | 35.95450 | -115.23209 | 7226 ft | 259 kts | 202° |
| 2026-05-05 00:43 | 35.93743 | -115.23965 | 8052 ft | 262 kts | 201° |
| 2026-05-05 00:44 | 35.92041 | -115.24726 | 8839 ft | 266 kts | 200° |
| 2026-05-05 00:44 | 35.90304 | -115.25507 | 9714 ft | 266 kts | 200° |
| 2026-05-05 00:44 | 35.88547 | -115.26299 | 10331 ft | 276 kts | 200° |
| 2026-05-05 00:44 | 35.86670 | -115.27146 | 10549 ft | 299 kts | 200° |
| 2026-05-05 00:45 | 35.84646 | -115.28062 | 10818 ft | 318 kts | 200° |
| 2026-05-05 00:45 | 35.82543 | -115.29014 | 11414 ft | 324 kts | 201° |
| 2026-05-05 00:45 | 35.80413 | -115.29977 | 12127 ft | 328 kts | 201° |
| 2026-05-05 00:45 | 35.78263 | -115.30952 | 12848 ft | 331 kts | 201° |
| 2026-05-05 00:46 | 35.76090 | -115.31936 | 13565 ft | 334 kts | 201° |
| 2026-05-05 00:46 | 35.73895 | -115.32927 | 14230 ft | 337 kts | 202° |
| 2026-05-05 00:46 | 35.71687 | -115.33925 | 14887 ft | 340 kts | 202° |
| 2026-05-05 00:46 | 35.69460 | -115.34932 | 15583 ft | 342 kts | 202° |
| 2026-05-05 00:47 | 35.67220 | -115.35943 | 16281 ft | 344 kts | 202° |
| 2026-05-05 00:47 | 35.64963 | -115.36955 | 16959 ft | 345 kts | 202° |
| 2026-05-05 00:47 | 35.62698 | -115.37958 | 17632 ft | 348 kts | 200° |
| 2026-05-05 00:47 | 35.60314 | -115.38574 | 18270 ft | 354 kts | 189° |
| 2026-05-05 00:48 | 35.57832 | -115.38583 | 18823 ft | 361 kts | 181° |
| 2026-05-05 00:48 | 35.55316 | -115.38395 | 19373 ft | 364 kts | 181° |
| 2026-05-05 00:48 | 35.52779 | -115.38205 | 19913 ft | 367 kts | 181° |
| 2026-05-05 00:48 | 35.50220 | -115.38014 | 20454 ft | 370 kts | 182° |
| 2026-05-05 00:49 | 35.47635 | -115.37826 | 20983 ft | 373 kts | 182° |
| 2026-05-05 00:49 | 35.45060 | -115.37967 | 21517 ft | 370 kts | 194° |
| 2026-05-05 00:49 | 35.42604 | -115.38712 | 21810 ft | 367 kts | 204° |
| 2026-05-05 00:49 | 35.40286 | -115.40025 | 21873 ft | 360 kts | 211° |
| 2026-05-05 00:50 | 35.38083 | -115.41450 | 21873 ft | 357 kts | 211° |
| 2026-05-05 00:50 | 35.35911 | -115.42847 | 21879 ft | 357 kts | 211° |
| 2026-05-05 00:50 | 35.33714 | -115.44256 | 21879 ft | 356 kts | 211° |
| 2026-05-05 00:50 | 35.31514 | -115.45661 | 21879 ft | 356 kts | 211° |
| 2026-05-05 00:51 | 35.29315 | -115.47064 | 21880 ft | 356 kts | 211° |
| 2026-05-05 00:51 | 35.27114 | -115.48465 | 21873 ft | 356 kts | 211° |
| 2026-05-05 00:51 | 35.24913 | -115.49867 | 21874 ft | 356 kts | 211° |
| 2026-05-05 00:51 | 35.22709 | -115.51271 | 21874 ft | 357 kts | 211° |
| 2026-05-05 00:52 | 35.20511 | -115.52670 | 21871 ft | 356 kts | 211° |
| 2026-05-05 00:52 | 35.18312 | -115.54071 | 21871 ft | 356 kts | 211° |
| 2026-05-05 00:52 | 35.16110 | -115.55471 | 21864 ft | 357 kts | 211° |
| 2026-05-05 00:52 | 35.13915 | -115.56875 | 21865 ft | 356 kts | 213° |
| 2026-05-05 00:53 | 35.11899 | -115.58595 | 21855 ft | 352 kts | 223° |
| 2026-05-05 00:53 | 35.10178 | -115.60706 | 21867 ft | 350 kts | 228° |
| 2026-05-05 00:53 | 35.08502 | -115.62862 | 21870 ft | 350 kts | 228° |
| 2026-05-05 00:53 | 35.06823 | -115.65015 | 21885 ft | 349 kts | 227° |
| 2026-05-05 00:54 | 35.05147 | -115.67161 | 21862 ft | 350 kts | 227° |
| 2026-05-05 00:54 | 35.03462 | -115.69311 | 21854 ft | 350 kts | 227° |
| 2026-05-05 00:54 | 35.01777 | -115.71458 | 21850 ft | 350 kts | 227° |
| 2026-05-05 00:54 | 35.00091 | -115.73605 | 21848 ft | 351 kts | 227° |
| 2026-05-05 00:55 | 34.98406 | -115.75751 | 21845 ft | 351 kts | 227° |
| 2026-05-05 00:55 | 34.96713 | -115.77903 | 21840 ft | 351 kts | 227° |
| 2026-05-05 00:55 | 34.95025 | -115.80051 | 21840 ft | 351 kts | 227° |
| 2026-05-05 00:55 | 34.93336 | -115.82203 | 21830 ft | 351 kts | 227° |
| 2026-05-05 00:56 | 34.91667 | -115.84327 | 21833 ft | 351 kts | 227° |
| 2026-05-05 00:56 | 34.89956 | -115.86505 | 21834 ft | 351 kts | 227° |
| 2026-05-05 00:56 | 34.88289 | -115.88627 | 21835 ft | 351 kts | 227° |
| 2026-05-05 00:56 | 34.86597 | -115.90779 | 21838 ft | 351 kts | 227° |
| 2026-05-05 00:57 | 34.84905 | -115.92926 | 21838 ft | 351 kts | 227° |
| 2026-05-05 00:57 | 34.83213 | -115.95069 | 21845 ft | 351 kts | 227° |
| 2026-05-05 00:57 | 34.81519 | -115.97214 | 21850 ft | 351 kts | 227° |
| 2026-05-05 00:57 | 34.79825 | -115.99357 | 21830 ft | 351 kts | 227° |
| 2026-05-05 00:58 | 34.78134 | -116.01495 | 21838 ft | 351 kts | 227° |
| 2026-05-05 00:58 | 34.76443 | -116.03634 | 21841 ft | 350 kts | 227° |
| 2026-05-05 00:58 | 34.74762 | -116.05772 | 21844 ft | 350 kts | 228° |
| 2026-05-05 00:58 | 34.73085 | -116.07912 | 21846 ft | 350 kts | 228° |
| 2026-05-05 00:59 | 34.71406 | -116.10057 | 21850 ft | 350 kts | 228° |
| 2026-05-05 00:59 | 34.69731 | -116.12196 | 21848 ft | 349 kts | 228° |
| 2026-05-05 00:59 | 34.68053 | -116.14333 | 21858 ft | 349 kts | 228° |
| 2026-05-05 00:59 | 34.66372 | -116.16470 | 21857 ft | 349 kts | 228° |
| 2026-05-05 01:00 | 34.64690 | -116.18604 | 21853 ft | 349 kts | 227° |
| 2026-05-05 01:00 | 34.63008 | -116.20734 | 21854 ft | 349 kts | 227° |
| 2026-05-05 01:00 | 34.61327 | -116.22865 | 21854 ft | 349 kts | 227° |
| 2026-05-05 01:00 | 34.59644 | -116.25000 | 21853 ft | 349 kts | 227° |
| 2026-05-05 01:01 | 34.57965 | -116.27127 | 21887 ft | 349 kts | 227° |
| 2026-05-05 01:01 | 34.56284 | -116.29255 | 21882 ft | 348 kts | 228° |
| 2026-05-05 01:01 | 34.54610 | -116.31376 | 21874 ft | 348 kts | 227° |
| 2026-05-05 01:01 | 34.52933 | -116.33498 | 21872 ft | 348 kts | 227° |
| 2026-05-05 01:02 | 34.51253 | -116.35620 | 21870 ft | 348 kts | 227° |
| 2026-05-05 01:02 | 34.49598 | -116.37711 | 21869 ft | 348 kts | 227° |
| 2026-05-05 01:02 | 34.47900 | -116.39854 | 21883 ft | 348 kts | 227° |
| 2026-05-05 01:02 | 34.46244 | -116.41942 | 21871 ft | 348 kts | 227° |
| 2026-05-05 01:03 | 34.44549 | -116.44081 | 21881 ft | 347 kts | 227° |
| 2026-05-05 01:03 | 34.42879 | -116.46193 | 21882 ft | 347 kts | 228° |
| 2026-05-05 01:03 | 34.41409 | -116.48492 | 21881 ft | 346 kts | 238° |
| 2026-05-05 01:03 | 34.40309 | -116.51040 | 21909 ft | 345 kts | 243° |
| 2026-05-05 01:04 | 34.39245 | -116.53647 | 21905 ft | 345 kts | 243° |
| 2026-05-05 01:04 | 34.37088 | -116.58883 | 21917 ft | 345 kts | 242° |
| 2026-05-05 01:04 | 34.36027 | -116.61451 | 21913 ft | 346 kts | 242° |
| 2026-05-05 01:05 | 34.34936 | -116.64086 | 21931 ft | 346 kts | 242° |
| 2026-05-05 01:05 | 34.33875 | -116.66649 | 21929 ft | 345 kts | 242° |
| 2026-05-05 01:05 | 34.32801 | -116.69252 | 21926 ft | 346 kts | 243° |
| 2026-05-05 01:05 | 34.31744 | -116.71864 | 21919 ft | 346 kts | 243° |
| 2026-05-05 01:06 | 34.30679 | -116.74479 | 21915 ft | 349 kts | 242° |
| 2026-05-05 01:06 | 34.29608 | -116.77100 | 21938 ft | 347 kts | 243° |
| 2026-05-05 01:06 | 34.28556 | -116.79718 | 21940 ft | 346 kts | 243° |
| 2026-05-05 01:06 | 34.27509 | -116.82339 | 21939 ft | 346 kts | 243° |
| 2026-05-05 01:07 | 34.26464 | -116.84957 | 21935 ft | 346 kts | 243° |
| 2026-05-05 01:07 | 34.25420 | -116.87573 | 21970 ft | 346 kts | 243° |
| 2026-05-05 01:07 | 34.24383 | -116.90166 | 21741 ft | 339 kts | 243° |
| 2026-05-05 01:07 | 34.23369 | -116.92693 | 21484 ft | 330 kts | 243° |
| 2026-05-05 01:08 | 34.22371 | -116.95170 | 21233 ft | 327 kts | 243° |
| 2026-05-05 01:08 | 34.21378 | -116.97644 | 20976 ft | 327 kts | 244° |
| 2026-05-05 01:08 | 34.20581 | -117.00218 | 20740 ft | 328 kts | 250° |
| 2026-05-05 01:08 | 34.19877 | -117.02839 | 20487 ft | 328 kts | 250° |
| 2026-05-05 01:09 | 34.19174 | -117.05458 | 20254 ft | 328 kts | 250° |
| 2026-05-05 01:09 | 34.18468 | -117.08077 | 20000 ft | 327 kts | 250° |
| 2026-05-05 01:09 | 34.17761 | -117.10687 | 19757 ft | 327 kts | 250° |
| 2026-05-05 01:09 | 34.17052 | -117.13299 | 19534 ft | 327 kts | 250° |
| 2026-05-05 01:10 | 34.16344 | -117.15913 | 19286 ft | 327 kts | 249° |
| 2026-05-05 01:10 | 34.15636 | -117.18518 | 19069 ft | 326 kts | 250° |
| 2026-05-05 01:10 | 34.14925 | -117.21117 | 18897 ft | 326 kts | 250° |
| 2026-05-05 01:10 | 34.14210 | -117.23712 | 18659 ft | 326 kts | 249° |
| 2026-05-05 01:11 | 34.13499 | -117.26285 | 18308 ft | 322 kts | 249° |
| 2026-05-05 01:11 | 34.12792 | -117.28840 | 17785 ft | 320 kts | 249° |
| 2026-05-05 01:11 | 34.12089 | -117.31373 | 17327 ft | 317 kts | 249° |
| 2026-05-05 01:11 | 34.11396 | -117.33882 | 16882 ft | 314 kts | 249° |
| 2026-05-05 01:12 | 34.10707 | -117.36375 | 16427 ft | 312 kts | 250° |
| 2026-05-05 01:12 | 34.10044 | -117.38825 | 15982 ft | 310 kts | 250° |
| 2026-05-05 01:12 | 34.09416 | -117.41290 | 15524 ft | 309 kts | 251° |
| 2026-05-05 01:12 | 34.08806 | -117.43768 | 15087 ft | 307 kts | 251° |
| 2026-05-05 01:13 | 34.08202 | -117.46236 | 14646 ft | 307 kts | 251° |
| 2026-05-05 01:13 | 34.07597 | -117.48698 | 14209 ft | 306 kts | 252° |
| 2026-05-05 01:13 | 34.06985 | -117.51168 | 13747 ft | 307 kts | 251° |
| 2026-05-05 01:13 | 34.06360 | -117.53638 | 13248 ft | 308 kts | 251° |
| 2026-05-05 01:14 | 34.05728 | -117.56097 | 12779 ft | 306 kts | 251° |
| 2026-05-05 01:14 | 34.05099 | -117.58537 | 12325 ft | 304 kts | 252° |
| 2026-05-05 01:14 | 34.04475 | -117.60963 | 11870 ft | 302 kts | 252° |
| 2026-05-05 01:14 | 34.03854 | -117.63382 | 11416 ft | 301 kts | 252° |
| 2026-05-05 01:15 | 34.03241 | -117.65788 | 10965 ft | 299 kts | 252° |
| 2026-05-05 01:15 | 34.02631 | -117.68178 | 10529 ft | 297 kts | 253° |
| 2026-05-05 01:15 | 34.02134 | -117.70582 | 10188 ft | 292 kts | 262° |
| 2026-05-05 01:15 | 34.01914 | -117.72962 | 10071 ft | 280 kts | 263° |
| 2026-05-05 01:16 | 34.01693 | -117.75261 | 9945 ft | 272 kts | 263° |
| 2026-05-05 01:16 | 34.01546 | -117.76749 | 9788 ft | 269 kts | 263° |
| 2026-05-05 01:16 | 34.01256 | -117.79692 | 9370 ft | 265 kts | 263° |
| 2026-05-05 01:16 | 34.01040 | -117.81890 | 9044 ft | 263 kts | 263° |
| 2026-05-05 01:17 | 34.00825 | -117.84070 | 8720 ft | 262 kts | 263° |
| 2026-05-05 01:17 | 34.00611 | -117.86245 | 8395 ft | 261 kts | 263° |
| 2026-05-05 01:17 | 34.00397 | -117.88406 | 8072 ft | 258 kts | 263° |
| 2026-05-05 01:17 | 34.00184 | -117.90548 | 7751 ft | 256 kts | 263° |
| 2026-05-05 01:18 | 34.00043 | -117.91975 | 7538 ft | 251 kts | 263° |
| 2026-05-05 01:18 | 33.99844 | -117.94005 | 7231 ft | 237 kts | 263° |
| 2026-05-05 01:18 | 33.99646 | -117.95953 | 6949 ft | 232 kts | 263° |
| 2026-05-05 01:18 | 33.99454 | -117.97877 | 6663 ft | 230 kts | 263° |
| 2026-05-05 01:19 | 33.99266 | -117.99776 | 6371 ft | 226 kts | 263° |
| 2026-05-05 01:19 | 33.99083 | -118.01632 | 6086 ft | 221 kts | 263° |
| 2026-05-05 01:19 | 33.98902 | -118.03461 | 5806 ft | 218 kts | 263° |
| 2026-05-05 01:19 | 33.98727 | -118.05227 | 5548 ft | 215 kts | 263° |
| 2026-05-05 01:20 | 33.98549 | -118.07025 | 5284 ft | 212 kts | 263° |
| 2026-05-05 01:20 | 33.98377 | -118.08752 | 5011 ft | 211 kts | 263° |
| 2026-05-05 01:20 | 33.98203 | -118.10501 | 4754 ft | 208 kts | 263° |
| 2026-05-05 01:20 | 33.98032 | -118.12219 | 4512 ft | 206 kts | 263° |
| 2026-05-05 01:21 | 33.97864 | -118.13906 | 4387 ft | 198 kts | 262° |
| 2026-05-05 01:21 | 33.97702 | -118.15521 | 4166 ft | 191 kts | 263° |
| 2026-05-05 01:21 | 33.97545 | -118.17092 | 3938 ft | 186 kts | 262° |
| 2026-05-05 01:21 | 33.97394 | -118.18600 | 3694 ft | 176 kts | 263° |
| 2026-05-05 01:22 | 33.97251 | -118.20029 | 3468 ft | 168 kts | 262° |
| 2026-05-05 01:22 | 33.97113 | -118.21398 | 3246 ft | 161 kts | 262° |
| 2026-05-05 01:22 | 33.96981 | -118.22712 | 3032 ft | 156 kts | 261° |
| 2026-05-05 01:22 | 33.96853 | -118.23985 | 2829 ft | 152 kts | 261° |
| 2026-05-05 01:23 | 33.96726 | -118.25242 | 2621 ft | 151 kts | 262° |
| 2026-05-05 01:23 | 33.96601 | -118.26487 | 2433 ft | 149 kts | 263° |
| 2026-05-05 01:23 | 33.96474 | -118.27745 | 2224 ft | 148 kts | 262° |
| 2026-05-05 01:23 | 33.96356 | -118.28910 | 2046 ft | 134 kts | 261° |
| 2026-05-05 01:24 | 33.96244 | -118.30013 | 1851 ft | 133 kts | 263° |
| 2026-05-05 01:24 | 33.96135 | -118.31109 | 1681 ft | 131 kts | 261° |
| 2026-05-05 01:24 | 33.96025 | -118.32187 | 1476 ft | 128 kts | 261° |
| 2026-05-05 01:24 | 33.95918 | -118.33241 | 1328 ft | 129 kts | 262° |
| 2026-05-05 01:25 | 33.95810 | -118.34322 | 1108 ft | 132 kts | 261° |
| 2026-05-05 01:25 | 33.95700 | -118.35391 | 954 ft | 127 kts | 261° |
| 2026-05-05 01:25 | 33.95589 | -118.36457 | 803 ft | 130 kts | 262° |
| 2026-05-05 01:25 | 33.95482 | -118.37555 | 575 ft | 133 kts | 263° |
| 2026-05-05 01:26 | 33.95369 | -118.38658 | 394 ft | 130 kts | 262° |
| 2026-05-05 01:26 | 33.95257 | -118.39728 | 195 ft | 129 kts | 263° |
| 2026-05-05 01:26 | 33.95151 | -118.40782 | 100 ft | 121 kts | 262° |
| 2026-05-05 01:26 | 33.95065 | -118.41622 | 94 ft | 77 kts | 263° |
| 2026-05-05 01:27 | 33.95019 | -118.42074 | 97 ft | 40 kts | 263° |
| 2026-05-05 01:27 | 33.94980 | -118.42282 | 96 ft | 18 kts | 245° |
| 2026-05-05 01:27 | 33.94914 | -118.42407 | 96 ft | 18 kts | 228° |
| 2026-05-05 01:27 | 33.94841 | -118.42477 | 99 ft | 10 kts | 202° |
| 2026-05-05 01:28 | 33.94764 | -118.42487 | 100 ft | 13 kts | 176° |
| 2026-05-05 01:28 | 33.94670 | -118.42450 | 97 ft | 12 kts | 122° |
| 2026-05-05 01:28 | 33.94671 | -118.42340 | 94 ft | 14 kts | 83° |
| 2026-05-05 01:28 | 33.94685 | -118.42213 | 95 ft | 16 kts | 83° |
| 2026-05-05 01:29 | 33.94699 | -118.42071 | 94 ft | 18 kts | 83° |
| 2026-05-05 01:29 | 33.94715 | -118.41918 | 93 ft | 19 kts | 83° |
| 2026-05-05 01:29 | 33.94731 | -118.41749 | 97 ft | 21 kts | 83° |
| 2026-05-05 01:29 | 33.94745 | -118.41610 | 94 ft | 15 kts | 83° |
| 2026-05-05 01:30 | 33.94759 | -118.41483 | 94 ft | 16 kts | 82° |
| 2026-05-05 01:30 | 33.94715 | -118.41387 | 94 ft | 15 kts | 170° |
| 2026-05-05 01:30 | 33.94604 | -118.41371 | 96 ft | 17 kts | 173° |
| 2026-05-05 01:30 | 33.94485 | -118.41352 | 93 ft | 16 kts | 173° |
| 2026-05-05 01:31 | 33.94375 | -118.41336 | 94 ft | 12 kts | 176° |
| 2026-05-05 01:31 | 33.94280 | -118.41323 | 94 ft | 15 kts | 173° |
| 2026-05-05 01:31 | 33.94168 | -118.41306 | 93 ft | 17 kts | 173° |
| 2026-05-05 01:31 | 33.94044 | -118.41288 | 94 ft | 19 kts | 173° |
| 2026-05-05 01:32 | 33.93913 | -118.41269 | 93 ft | 18 kts | 172° |
| 2026-05-05 01:32 | 33.93840 | -118.41209 | 94 ft | 13 kts | 98° |
| 2026-05-05 01:32 | 33.93850 | -118.41093 | 93 ft | 15 kts | 83° |
| 2026-05-05 01:32 | 33.93863 | -118.40963 | 93 ft | 16 kts | 83° |
| 2026-05-05 01:33 | 33.93877 | -118.40820 | 93 ft | 18 kts | 83° |
| 2026-05-05 01:33 | 33.93894 | -118.40675 | 95 ft | 17 kts | 82° |
| 2026-05-05 01:33 | 33.93915 | -118.40560 | 94 ft | 12 kts | 47° |
| 2026-05-05 01:33 | 33.93996 | -118.40549 | 95 ft | 11 kts | 353° |
| 2026-05-05 01:34 | 33.94066 | -118.40549 | 93 ft | 5 kts | 43° |
| 2026-05-05 01:34 | 33.94065 | -118.40530 | 93 ft | 3 kts | 95° |
| 2026-05-05 01:34 | 33.94067 | -118.40504 | 93 ft | 1 kts | 82° |
| 2026-05-05 01:34 | 33.94068 | -118.40496 | 93 ft | 0 kts | 82° |